createdAt,value
2018-08-25T00:00:26.971Z,93870.12
2018-08-25T00:02:56.521Z,93868.86
2018-08-25T00:05:25.855Z,93869.38
2018-08-25T00:07:55.195Z,93860.46
2018-08-25T00:10:24.661Z,93858.88
2018-08-25T00:12:54.043Z,93855.47
2018-08-25T00:15:23.308Z,93863.88
2018-08-25T00:17:52.889Z,93856.26
2018-08-25T00:20:22.219Z,93855.77
2018-08-25T00:22:52.458Z,93857.61
2018-08-25T00:25:21.875Z,93855.24
2018-08-25T00:27:51.178Z,93845.80
2018-08-25T00:30:26.642Z,93851.05
2018-08-25T00:32:56.135Z,93853.67
2018-08-25T00:35:25.646Z,93857.61
2018-08-25T00:37:55.118Z,93852.09
2018-08-25T00:40:24.431Z,93847.66
2018-08-25T00:42:53.754Z,93848.45
2018-08-25T00:45:23.126Z,93846.34
2018-08-25T00:47:52.553Z,93856.06
2018-08-25T00:50:22.437Z,93849.73
2018-08-25T00:52:52.009Z,93851.08
2018-08-25T00:55:21.402Z,93850.78
2018-08-25T00:57:50.749Z,93851.57
2018-08-25T01:00:20.236Z,93847.89
2018-08-25T01:02:49.640Z,93857.08
2018-08-25T01:05:19.064Z,93861.81
2018-08-25T01:07:48.703Z,93863.13
2018-08-25T01:10:18.135Z,93863.41
2018-08-25T01:12:47.569Z,93866.55
2018-08-25T01:15:17.107Z,93872.06
2018-08-25T01:17:46.486Z,93880.95
2018-08-25T01:20:15.891Z,93874.64
2018-08-25T01:22:45.403Z,93870.71
2018-08-25T01:25:14.661Z,93871.54
2018-08-25T01:27:43.988Z,93864.45
2018-08-25T01:30:13.834Z,93864.72
2018-08-25T01:32:43.459Z,93863.38
2018-08-25T01:35:13.812Z,93859.70
2018-08-25T01:37:43.224Z,93859.47
2018-08-25T01:40:12.451Z,93856.81
2018-08-25T01:42:41.947Z,93858.91
2018-08-25T01:45:11.187Z,93858.64
2018-08-25T01:47:40.603Z,93850.02
2018-08-25T01:50:09.867Z,93851.83
2018-08-25T01:52:39.219Z,93858.14
2018-08-25T01:55:09.190Z,93857.59
2018-08-25T01:57:38.723Z,93852.09
2018-08-25T02:00:08.376Z,93853.14
2018-08-25T02:02:37.649Z,93851.03
2018-08-25T02:05:06.890Z,93851.83
2018-08-25T02:07:36.275Z,93848.97
2018-08-25T02:10:05.734Z,93857.89
2018-08-25T02:12:34.888Z,93856.58
2018-08-25T02:15:04.061Z,93853.92
2018-08-25T02:17:33.535Z,93858.13
2018-08-25T02:20:02.948Z,93857.33
2018-08-25T02:22:32.475Z,93864.94
2018-08-25T02:25:01.784Z,93858.37
2018-08-25T02:27:31.132Z,93855.23
2018-08-25T02:30:00.735Z,93865.98
2018-08-25T02:32:30.940Z,93863.11
2018-08-25T02:35:00.440Z,93857.86
2018-08-25T02:37:30.380Z,93855.77
2018-08-25T02:39:59.902Z,93853.94
2018-08-25T02:42:29.358Z,93853.39
2018-08-25T02:44:58.684Z,93847.12
2018-08-25T02:47:28.265Z,93851.05
2018-08-25T02:49:57.843Z,93851.31
2018-08-25T02:52:27.167Z,93852.88
2018-08-25T02:54:56.452Z,93846.33
2018-08-25T02:57:25.745Z,93837.94
2018-08-25T02:59:55.119Z,93841.34
2018-08-25T03:02:24.816Z,93840.56
2018-08-25T03:04:54.795Z,93845.55
2018-08-25T03:07:24.205Z,93847.38
2018-08-25T03:09:53.473Z,93844.75
2018-08-25T03:12:22.894Z,93846.59
2018-08-25T03:14:52.796Z,93844.23
2018-08-25T03:17:22.139Z,93845.02
2018-08-25T03:19:51.451Z,93841.59
2018-08-25T03:22:20.808Z,93844.48
2018-08-25T03:24:50.227Z,93844.50
2018-08-25T03:27:19.584Z,93846.59
2018-08-25T03:29:48.826Z,93848.16
2018-08-25T03:32:18.232Z,93848.94
2018-08-25T03:34:47.691Z,93853.16
2018-08-25T03:37:16.945Z,93848.70
2018-08-25T03:39:46.321Z,93855.25
2018-08-25T03:42:15.738Z,93856.03
2018-08-25T03:44:45.103Z,93852.11
2018-08-25T03:47:14.379Z,93856.53
2018-08-25T03:49:43.720Z,93857.61
2018-08-25T03:52:12.952Z,93858.41
2018-08-25T03:54:42.443Z,93850.77
2018-08-25T03:57:11.751Z,93853.41
2018-08-25T03:59:41.298Z,93853.41
2018-08-25T04:02:10.725Z,93854.47
2018-08-25T04:04:40.184Z,93858.66
2018-08-25T04:07:09.947Z,93852.61
2018-08-25T04:09:39.570Z,93856.81
2018-08-25T04:12:08.859Z,93853.67
2018-08-25T04:14:38.168Z,93847.12
2018-08-25T04:17:07.733Z,93841.09
2018-08-25T04:19:37.211Z,93838.20
2018-08-25T04:22:06.649Z,93844.48
2018-08-25T04:24:36.001Z,93838.44
2018-08-25T04:27:05.238Z,93842.37
2018-08-25T04:29:34.677Z,93837.64
2018-08-25T04:32:04.230Z,93843.42
2018-08-25T04:34:33.551Z,93847.59
2018-08-25T04:37:02.909Z,93850.23
2018-08-25T04:39:32.254Z,93848.67
2018-08-25T04:42:01.822Z,93838.70
2018-08-25T04:44:31.192Z,93840.03
2018-08-25T04:47:00.566Z,93838.45
2018-08-25T04:49:30.015Z,93839.77
2018-08-25T04:51:59.392Z,93845.03
2018-08-25T04:54:28.982Z,93850.77
2018-08-25T04:56:58.596Z,93853.13
2018-08-25T04:59:29.951Z,93853.93
2018-08-25T05:01:59.469Z,93858.58
2018-08-25T05:04:28.821Z,93863.05
2018-08-25T05:06:58.054Z,93859.38
2018-08-25T05:09:27.502Z,93854.94
2018-08-25T05:11:57.587Z,93849.18
2018-08-25T05:14:27.032Z,93846.05
2018-08-25T05:16:56.455Z,93847.86
2018-08-25T05:19:25.919Z,93859.16
2018-08-25T05:21:55.537Z,93857.58
2018-08-25T05:24:24.859Z,93853.40
2018-08-25T05:26:54.299Z,93852.33
2018-08-25T05:29:23.730Z,93853.34
2018-08-25T05:31:53.105Z,93856.00
2018-08-25T05:34:22.969Z,93862.83
2018-08-25T05:36:52.412Z,93854.95
2018-08-25T05:39:22.817Z,93861.51
2018-08-25T05:41:52.136Z,93858.63
2018-08-25T05:44:21.655Z,93870.95
2018-08-25T05:46:51.029Z,93882.44
2018-08-25T05:49:21.019Z,93878.47
2018-08-25T05:51:50.420Z,93880.59
2018-08-25T05:54:20.080Z,93874.61
2018-08-25T05:56:49.631Z,93876.44
2018-08-25T05:59:19.030Z,93873.05
2018-08-25T06:01:48.478Z,93877.50
2018-08-25T06:04:17.802Z,93873.56
2018-08-25T06:06:47.089Z,93879.34
2018-08-25T06:09:16.561Z,93880.84
2018-08-25T06:11:45.792Z,93879.83
2018-08-25T06:14:15.182Z,93881.91
2018-08-25T06:16:44.414Z,93888.45
2018-08-25T06:19:13.812Z,93886.03
2018-08-25T06:21:43.180Z,93892.80
2018-08-25T06:24:12.760Z,93886.30
2018-08-25T06:26:41.968Z,93883.05
2018-08-25T06:29:11.335Z,93891.93
2018-08-25T06:31:40.771Z,93891.08
2018-08-25T06:34:10.531Z,93898.92
2018-08-25T06:36:40.041Z,93900.20
2018-08-25T06:39:10.636Z,93900.22
2018-08-25T06:41:40.259Z,93901.31
2018-08-25T06:44:10.327Z,93906.55
2018-08-25T06:46:40.059Z,93903.61
2018-08-25T06:49:09.675Z,93912.82
2018-08-25T06:51:39.097Z,93917.67
2018-08-25T06:54:09.366Z,93914.92
2018-08-25T06:56:39.634Z,93914.13
2018-08-25T06:59:08.969Z,93913.54
2018-08-25T07:01:38.497Z,93923.44
2018-08-25T07:04:08.006Z,93922.57
2018-08-25T07:06:37.615Z,93926.59
2018-08-25T07:09:10.336Z,93928.94
2018-08-25T07:11:39.753Z,93939.42
2018-08-25T07:14:10.691Z,93939.77
2018-08-25T07:16:40.049Z,93945.02
2018-08-25T07:19:09.602Z,93942.29
2018-08-25T07:21:40.361Z,93943.33
2018-08-25T07:24:10.654Z,93946.70
2018-08-25T07:26:40.157Z,93951.35
2018-08-25T07:29:10.315Z,93939.91
2018-08-25T07:31:41.066Z,93947.80
2018-08-25T07:34:11.021Z,93951.57
2018-08-25T07:36:40.563Z,93952.08
2018-08-25T07:39:12.225Z,93950.31
2018-08-25T07:41:41.875Z,93949.19
2018-08-25T07:44:12.291Z,93948.34
2018-08-25T07:46:42.031Z,93947.86
2018-08-25T07:49:11.325Z,93940.31
2018-08-25T07:51:41.305Z,93946.88
2018-08-25T07:54:10.739Z,93947.77
2018-08-25T07:56:40.112Z,93941.52
2018-08-25T07:59:09.809Z,93938.36
2018-08-25T08:01:39.823Z,93937.65
2018-08-25T08:04:09.418Z,93932.37
2018-08-25T08:06:38.841Z,93932.09
2018-08-25T08:09:10.489Z,93928.44
2018-08-25T08:11:39.863Z,93936.59
2018-08-25T08:14:09.722Z,93941.84
2018-08-25T08:16:39.090Z,93943.19
2018-08-25T08:19:08.737Z,93947.36
2018-08-25T08:21:38.059Z,93944.51
2018-08-25T08:24:07.546Z,93946.10
2018-08-25T08:26:37.351Z,93946.82
2018-08-25T08:29:06.979Z,93951.85
2018-08-25T08:31:36.284Z,93951.61
2018-08-25T08:34:05.628Z,93957.37
2018-08-25T08:36:34.935Z,93960.48
2018-08-25T08:39:05.186Z,93959.34
2018-08-25T08:41:34.498Z,93965.86
2018-08-25T08:44:04.301Z,93969.29
2018-08-25T08:46:34.922Z,93973.92
2018-08-25T08:49:06.086Z,93975.84
2018-08-25T08:51:36.657Z,93969.29
2018-08-25T08:54:05.891Z,93968.52
2018-08-25T08:56:35.273Z,93958.89
2018-08-25T08:59:04.610Z,93964.95
2018-08-25T09:01:34.229Z,93963.09
2018-08-25T09:04:04.366Z,93968.77
2018-08-25T09:06:33.621Z,93963.92
2018-08-25T09:09:03.156Z,93964.12
2018-08-25T09:11:32.636Z,93972.09
2018-08-25T09:14:02.671Z,93963.07
2018-08-25T09:16:32.152Z,93966.02
2018-08-25T09:19:02.775Z,93961.62
2018-08-25T09:21:32.166Z,93959.78
2018-08-25T09:24:01.495Z,93961.34
2018-08-25T09:26:31.025Z,93968.94
2018-08-25T09:29:00.447Z,93968.64
2018-08-25T09:31:30.927Z,93962.89
2018-08-25T09:34:00.376Z,93967.33
2018-08-25T09:36:29.968Z,93969.10
2018-08-25T09:38:59.479Z,93970.38
2018-08-25T09:41:29.225Z,93964.12
2018-08-25T09:43:58.504Z,93963.19
2018-08-25T09:46:27.923Z,93960.28
2018-08-25T09:48:57.286Z,93961.62
2018-08-25T09:51:26.744Z,93959.22
2018-08-25T09:53:56.215Z,93962.84
2018-08-25T09:56:26.171Z,93963.38
2018-08-25T09:58:55.711Z,93961.61
2018-08-25T10:01:31.086Z,93953.25
2018-08-25T10:04:01.191Z,93953.00
2018-08-25T10:06:30.507Z,93952.48
2018-08-25T10:08:59.898Z,93952.22
2018-08-25T10:11:29.304Z,93943.87
2018-08-25T10:13:58.951Z,93947.52
2018-08-25T10:16:29.134Z,93939.09
2018-08-25T10:18:58.584Z,93940.13
2018-08-25T10:21:28.026Z,93950.11
2018-08-25T10:23:57.457Z,93944.84
2018-08-25T10:26:27.164Z,93941.69
2018-08-25T10:28:56.626Z,93946.11
2018-08-25T10:31:26.211Z,93941.97
2018-08-25T10:33:56.894Z,93946.08
2018-08-25T10:36:26.620Z,93945.83
2018-08-25T10:38:56.169Z,93937.50
2018-08-25T10:41:25.469Z,93936.73
2018-08-25T10:43:55.244Z,93934.84
2018-08-25T10:46:24.804Z,93938.53
2018-08-25T10:48:55.476Z,93945.59
2018-08-25T10:51:24.903Z,93933.75
2018-08-25T10:53:54.523Z,93938.39
2018-08-25T10:56:24.203Z,93932.93
2018-08-25T10:58:54.060Z,93934.31
2018-08-25T11:01:23.448Z,93931.49
2018-08-25T11:03:52.938Z,93932.80
2018-08-25T11:06:23.608Z,93928.63
2018-08-25T11:08:53.302Z,93934.39
2018-08-25T11:11:22.779Z,93922.05
2018-08-25T11:13:52.175Z,93926.52
2018-08-25T11:16:22.331Z,93925.49
2018-08-25T11:18:52.712Z,93919.48
2018-08-25T11:21:22.410Z,93918.97
2018-08-25T11:23:52.217Z,93921.60
2018-08-25T11:26:21.782Z,93914.78
2018-08-25T11:28:51.716Z,93918.44
2018-08-25T11:31:21.157Z,93932.87
2018-08-25T11:33:51.490Z,93916.33
2018-08-25T11:36:21.150Z,93921.33
2018-08-25T11:38:51.302Z,93922.11
2018-08-25T11:41:21.625Z,93916.59
2018-08-25T11:43:51.205Z,93915.81
2018-08-25T11:46:22.523Z,93913.96
2018-08-25T11:48:52.239Z,93910.03
2018-08-25T11:51:21.947Z,93913.72
2018-08-25T11:53:51.297Z,93913.45
2018-08-25T11:56:20.845Z,93911.87
2018-08-25T11:58:50.271Z,93906.37
2018-08-25T12:01:19.969Z,93913.48
2018-08-25T12:03:50.141Z,93904.81
2018-08-25T12:06:20.009Z,93896.69
2018-08-25T12:08:49.435Z,93899.04
2018-08-25T12:11:18.879Z,93893.80
2018-08-25T12:13:48.310Z,93890.11
2018-08-25T12:16:17.707Z,93891.70
2018-08-25T12:18:47.039Z,93885.12
2018-08-25T12:21:16.497Z,93884.89
2018-08-25T12:23:45.871Z,93888.05
2018-08-25T12:26:15.453Z,93884.59
2018-08-25T12:28:44.958Z,93881.22
2018-08-25T12:31:15.644Z,93882.53
2018-08-25T12:33:45.112Z,93869.94
2018-08-25T12:36:15.042Z,93869.13
2018-08-25T12:38:45.051Z,93872.04
2018-08-25T12:41:14.445Z,93878.05
2018-08-25T12:43:44.482Z,93878.58
2018-08-25T12:46:14.157Z,93875.39
2018-08-25T12:48:43.631Z,93872.28
2018-08-25T12:51:13.049Z,93866.00
2018-08-25T12:53:43.176Z,93862.05
2018-08-25T12:56:13.488Z,93860.48
2018-08-25T12:58:43.787Z,93856.81
2018-08-25T13:01:13.160Z,93853.65
2018-08-25T13:03:42.624Z,93856.53
2018-08-25T13:06:12.021Z,93849.98
2018-08-25T13:08:41.514Z,93847.09
2018-08-25T13:11:10.983Z,93847.63
2018-08-25T13:13:40.433Z,93846.58
2018-08-25T13:16:09.996Z,93840.53
2018-08-25T13:18:40.081Z,93842.64
2018-08-25T13:21:09.381Z,93845.01
2018-08-25T13:23:38.752Z,93848.41
2018-08-25T13:26:08.109Z,93838.95
2018-08-25T13:28:38.276Z,93849.70
2018-08-25T13:31:07.785Z,93845.25
2018-08-25T13:33:37.125Z,93842.63
2018-08-25T13:36:06.555Z,93838.92
2018-08-25T13:38:35.923Z,93840.50
2018-08-25T13:41:05.974Z,93841.30
2018-08-25T13:43:35.863Z,93837.64
2018-08-25T13:46:05.131Z,93834.22
2018-08-25T13:48:34.474Z,93842.34
2018-08-25T13:51:03.781Z,93845.51
2018-08-25T13:53:33.488Z,93842.07
2018-08-25T13:56:03.122Z,93844.42
2018-08-25T13:58:33.350Z,93851.75
2018-08-25T14:01:02.708Z,93854.52
2018-08-25T14:03:32.132Z,93856.34
2018-08-25T14:06:01.612Z,93858.91
2018-08-25T14:08:31.502Z,93870.95
2018-08-25T14:11:00.865Z,93866.42
2018-08-25T14:13:30.613Z,93867.19
2018-08-25T14:16:00.106Z,93866.95
2018-08-25T14:18:30.167Z,93868.31
2018-08-25T14:20:59.737Z,93865.21
2018-08-25T14:23:30.179Z,93849.50
2018-08-25T14:25:59.679Z,93857.04
2018-08-25T14:28:29.184Z,93857.56
2018-08-25T14:30:58.612Z,93859.39
2018-08-25T14:33:27.963Z,93854.67
2018-08-25T14:35:58.411Z,93860.45
2018-08-25T14:38:27.994Z,93864.47
2018-08-25T14:40:57.672Z,93861.02
2018-08-25T14:43:27.040Z,93860.65
2018-08-25T14:45:58.084Z,93854.44
2018-08-25T14:48:28.264Z,93852.41
2018-08-25T14:50:57.744Z,93855.30
2018-08-25T14:53:27.669Z,93855.84
2018-08-25T14:55:57.802Z,93855.84
2018-08-25T14:58:27.759Z,93849.30
2018-08-25T15:00:58.413Z,93841.20
2018-08-25T15:03:28.536Z,93841.19
2018-08-25T15:05:58.376Z,93849.31
2018-08-25T15:08:27.890Z,93854.18
2018-08-25T15:10:57.489Z,93860.40
2018-08-25T15:13:28.062Z,93864.64
2018-08-25T15:15:57.661Z,93870.36
2018-08-25T15:18:27.474Z,93866.64
2018-08-25T15:20:57.014Z,93867.90
2018-08-25T15:23:26.621Z,93872.31
2018-08-25T15:25:55.928Z,93874.36
2018-08-25T15:28:25.340Z,93865.23
2018-08-25T15:30:54.852Z,93865.28
2018-08-25T15:33:24.535Z,93864.80
2018-08-25T15:35:54.103Z,93866.83
2018-08-25T15:38:23.608Z,93865.90
2018-08-25T15:40:53.671Z,93872.34
2018-08-25T15:43:23.005Z,93873.84
2018-08-25T15:45:52.744Z,93883.80
2018-08-25T15:48:23.226Z,93888.23
2018-08-25T15:50:53.502Z,93883.65
2018-08-25T15:53:22.978Z,93883.53
2018-08-25T15:55:52.503Z,93882.52
2018-08-25T15:58:22.475Z,93881.81
2018-08-25T16:00:51.943Z,93881.98
2018-08-25T16:03:21.513Z,93886.80
2018-08-25T16:05:50.960Z,93891.91
2018-08-25T16:08:20.994Z,93900.88
2018-08-25T16:10:50.637Z,93899.05
2018-08-25T16:13:21.602Z,93900.35
2018-08-25T16:15:51.224Z,93898.61
2018-08-25T16:18:21.836Z,93903.45
2018-08-25T16:20:52.627Z,93900.05
2018-08-25T16:23:21.997Z,93894.22
2018-08-25T16:25:52.485Z,93898.84
2018-08-25T16:28:22.321Z,93902.72
2018-08-25T16:30:52.105Z,93905.61
2018-08-25T16:33:22.331Z,93914.27
2018-08-25T16:35:53.098Z,93910.47
2018-08-25T16:38:22.610Z,93905.40
2018-08-25T16:40:52.472Z,93906.78
2018-08-25T16:43:22.141Z,93909.13
2018-08-25T16:45:51.625Z,93912.31
2018-08-25T16:48:21.217Z,93918.12
2018-08-25T16:50:50.715Z,93909.64
2018-08-25T16:53:20.208Z,93918.16
2018-08-25T16:55:50.142Z,93917.13
2018-08-25T16:58:19.636Z,93911.25
2018-08-25T17:00:48.833Z,93915.17
2018-08-25T17:03:18.344Z,93912.72
2018-08-25T17:05:47.815Z,93918.81
2018-08-25T17:08:17.423Z,93914.72
2018-08-25T17:10:46.788Z,93916.75
2018-08-25T17:13:16.413Z,93920.19
2018-08-25T17:15:45.840Z,93923.86
2018-08-25T17:18:15.336Z,93932.96
2018-08-25T17:20:45.264Z,93934.34
2018-08-25T17:23:15.108Z,93932.52
2018-08-25T17:25:45.186Z,93934.30
2018-08-25T17:28:15.387Z,93931.55
2018-08-25T17:30:45.028Z,93939.25
2018-08-25T17:33:14.522Z,93938.53
2018-08-25T17:35:45.034Z,93940.52
2018-08-25T17:38:15.993Z,93941.95
2018-08-25T17:40:45.627Z,93948.52
2018-08-25T17:43:15.436Z,93945.74
2018-08-25T17:45:44.977Z,93947.08
2018-08-25T17:48:14.419Z,93942.83
2018-08-25T17:50:43.827Z,93941.52
2018-08-25T17:53:13.882Z,93949.22
2018-08-25T17:55:43.859Z,93946.95
2018-08-25T17:58:14.105Z,93957.62
2018-08-25T18:00:43.498Z,93954.16
2018-08-25T18:03:13.837Z,93962.23
2018-08-25T18:05:45.035Z,93962.56
2018-08-25T18:08:15.159Z,93953.62
2018-08-25T18:10:45.679Z,93957.77
2018-08-25T18:13:15.428Z,93959.80
2018-08-25T18:15:45.333Z,93961.33
2018-08-25T18:18:16.303Z,93951.80
2018-08-25T18:20:46.535Z,93946.89
2018-08-25T18:23:16.191Z,93955.20
2018-08-25T18:25:46.915Z,93956.43
2018-08-25T18:28:16.493Z,93965.61
2018-08-25T18:30:46.278Z,93966.55
2018-08-25T18:33:16.045Z,93969.91
2018-08-25T18:35:46.945Z,93971.58
2018-08-25T18:38:17.237Z,93974.81
2018-08-25T18:40:46.722Z,93978.06
2018-08-25T18:43:16.385Z,93978.11
2018-08-25T18:45:46.032Z,93978.39
2018-08-25T18:48:16.843Z,93983.47
2018-08-25T18:50:47.315Z,93978.48
2018-08-25T18:53:16.928Z,93981.89
2018-08-25T18:55:46.951Z,93976.23
2018-08-25T18:58:17.231Z,93979.32
2018-08-25T19:00:47.440Z,93980.43
2018-08-25T19:03:17.809Z,93978.14
2018-08-25T19:05:47.938Z,93985.30
2018-08-25T19:08:17.492Z,93978.18
2018-08-25T19:10:47.701Z,93976.28
2018-08-25T19:13:17.751Z,93980.86
2018-08-25T19:15:48.236Z,93974.20
2018-08-25T19:18:18.289Z,93970.11
2018-08-25T19:20:50.631Z,93978.25
2018-08-25T19:23:20.115Z,93979.80
2018-08-25T19:25:49.792Z,93980.58
2018-08-25T19:28:19.277Z,93980.75
2018-08-25T19:30:49.839Z,93976.16
2018-08-25T19:33:20.370Z,93988.64
2018-08-25T19:35:50.803Z,93987.29
2018-08-25T19:38:20.757Z,93996.38
2018-08-25T19:40:51.221Z,93989.86
2018-08-25T19:43:22.169Z,93995.30
2018-08-25T19:45:53.128Z,93998.56
2018-08-25T19:48:24.982Z,93998.98
2018-08-25T19:50:54.875Z,93986.69
2018-08-25T19:53:25.699Z,93971.40
2018-08-25T19:55:55.697Z,93969.54
2018-08-25T19:58:26.415Z,93965.95
2018-08-25T20:00:56.212Z,93962.55
2018-08-25T20:03:27.632Z,93961.30
2018-08-25T20:05:57.153Z,93963.91
2018-08-25T20:08:28.162Z,93964.37
2018-08-25T20:10:58.069Z,93961.24
2018-08-25T20:13:27.551Z,93955.80
2018-08-25T20:15:57.877Z,93949.80
2018-08-25T20:18:27.872Z,93961.24
2018-08-25T20:20:57.366Z,93971.05
2018-08-25T20:23:26.648Z,93979.14
2018-08-25T20:25:56.429Z,93983.33
2018-08-25T20:28:25.872Z,93983.61
2018-08-25T20:30:55.391Z,93980.48
2018-08-25T20:33:26.249Z,93985.52
2018-08-25T20:35:55.698Z,93981.66
2018-08-25T20:38:25.138Z,93984.96
2018-08-25T20:40:54.631Z,93992.90
2018-08-25T20:43:24.164Z,93995.30
2018-08-25T20:45:53.848Z,94005.36
2018-08-25T20:48:23.189Z,94006.62
2018-08-25T20:50:53.170Z,94008.06
2018-08-25T20:53:23.125Z,94015.68
2018-08-25T20:55:52.498Z,94021.05
2018-08-25T20:58:21.826Z,94029.62
2018-08-25T21:00:51.281Z,94031.23
2018-08-25T21:03:20.770Z,94025.72
2018-08-25T21:05:50.306Z,94033.89
2018-08-25T21:08:19.835Z,94033.43
2018-08-25T21:10:51.381Z,94039.44
2018-08-25T21:13:20.747Z,94036.66
2018-08-25T21:15:50.199Z,94041.23
2018-08-25T21:18:19.671Z,94045.94
2018-08-25T21:20:49.363Z,94042.63
2018-08-25T21:23:19.123Z,94058.11
2018-08-25T21:25:49.209Z,94057.36
2018-08-25T21:28:18.751Z,94060.47
2018-08-25T21:30:48.918Z,94065.33
2018-08-25T21:33:18.613Z,94064.88
2018-08-25T21:35:48.019Z,94068.05
2018-08-25T21:38:17.424Z,94071.18
2018-08-25T21:40:47.518Z,94075.85
2018-08-25T21:43:17.084Z,94077.50
2018-08-25T21:45:46.472Z,94087.94
2018-08-25T21:48:15.952Z,94090.39
2018-08-25T21:50:45.148Z,94080.14
2018-08-25T21:53:14.705Z,94083.75
2018-08-25T21:55:44.341Z,94077.53
2018-08-25T21:58:13.933Z,94078.04
2018-08-25T22:00:48.207Z,94077.39
2018-08-25T22:03:17.909Z,94073.73
2018-08-25T22:05:48.027Z,94066.50
2018-08-25T22:08:17.304Z,94069.59
2018-08-25T22:10:46.882Z,94068.67
2018-08-25T22:13:16.790Z,94065.04
2018-08-25T22:15:46.394Z,94069.23
2018-08-25T22:18:17.324Z,94066.91
2018-08-25T22:20:46.876Z,94066.84
2018-08-25T22:23:16.266Z,94076.80
2018-08-25T22:25:45.871Z,94070.92
2018-08-25T22:28:15.346Z,94075.96
2018-08-25T22:30:44.730Z,94076.67
2018-08-25T22:33:14.132Z,94077.46
2018-08-25T22:35:43.520Z,94083.09
2018-08-25T22:38:12.739Z,94081.36
2018-08-25T22:40:42.585Z,94081.94
2018-08-25T22:43:12.428Z,94071.41
2018-08-25T22:45:41.918Z,94077.41
2018-08-25T22:48:11.136Z,94074.22
2018-08-25T22:50:40.559Z,94071.77
2018-08-25T22:53:10.010Z,94071.98
2018-08-25T22:55:39.499Z,94071.67
2018-08-25T22:58:10.048Z,94069.17
2018-08-25T23:00:39.812Z,94072.69
2018-08-25T23:03:10.052Z,94066.71
2018-08-25T23:05:39.693Z,94064.27
2018-08-25T23:08:09.145Z,94070.83
2018-08-25T23:10:39.790Z,94062.39
2018-08-25T23:13:09.292Z,94057.11
2018-08-25T23:15:38.680Z,94056.00
2018-08-25T23:18:08.081Z,94052.28
2018-08-25T23:20:37.665Z,94049.18
2018-08-25T23:23:07.905Z,94058.67
2018-08-25T23:25:38.022Z,94055.59
2018-08-25T23:28:07.467Z,94058.62
2018-08-25T23:30:36.931Z,94060.36
2018-08-25T23:33:06.263Z,94064.42
2018-08-25T23:35:36.118Z,94064.61
2018-08-25T23:38:05.811Z,94071.53
2018-08-25T23:40:35.433Z,94067.03
2018-08-25T23:43:05.034Z,94078.79
2018-08-25T23:45:34.967Z,94076.27
2018-08-25T23:48:04.277Z,94076.55
2018-08-25T23:50:34.835Z,94073.69
2018-08-25T23:53:04.266Z,94061.33
2018-08-25T23:55:34.018Z,94047.27
2018-08-25T23:58:03.547Z,94038.79
